Weather at Big Spring Mc Mahon-Wrinkle Airport

Public forecast

Using degrees Fahrenheit for public forecast. Weather courtesy of forecast.io.

Current aviation weather report (METAR) for Big Spring Mc Mahon-Wrinkle Airport

2024/05/29 18:35 (retrieved 24 minutes ago)

KBPG 291835Z AUTO 16006G16KT 10SM OVC047 29/16 A3008 RMK AO2 T02850156

Closest aviation forecast (TAF) to Big Spring Mc Mahon-Wrinkle Airport

Closest forecast is Midland International Air and Space Port, 38.2 nm (70.8 km) WSW.

2024/05/29 18:22 (retrieved 37 minutes ago)

TAF KMAF 291720Z 2918/3018 14011KT P6SM SCT040